sensor_id;sensor_type;location;lat;lon;timestamp;pressure;altitude;pressure_sealevel;temperature;humidity
14966;BME280;7577;45.226;5.798;2023-05-12T18:07:12;98661.65;;;23.02;49.58
14966;BME280;7577;45.226;5.798;2023-05-12T18:09:42;98669.98;;;22.96;49.61
14966;BME280;7577;45.226;5.798;2023-05-12T18:14:50;98674.27;;;22.94;49.68
14966;BME280;7577;45.226;5.798;2023-05-12T18:17:20;98682.41;;;22.87;50.00
14966;BME280;7577;45.226;5.798;2023-05-12T18:19:50;98678.25;;;22.87;50.17
14966;BME280;7577;45.226;5.798;2023-05-12T18:22:20;98681.02;;;22.87;50.12
14966;BME280;7577;45.226;5.798;2023-05-12T18:24:50;98683.80;;;22.87;50.29
14966;BME280;7577;45.226;5.798;2023-05-12T18:27:20;98675.13;;;22.88;50.20
14966;BME280;7577;45.226;5.798;2023-05-12T18:32:28;98677.40;;;22.92;50.11
14966;BME280;7577;45.226;5.798;2023-05-12T18:35:00;98684.02;;;22.88;50.25
14966;BME280;7577;45.226;5.798;2023-05-12T18:37:30;98681.13;;;22.90;50.54
14966;BME280;7577;45.226;5.798;2023-05-12T18:40:00;98693.27;;;22.92;50.50
14966;BME280;7577;45.226;5.798;2023-05-12T18:42:30;98694.41;;;22.97;50.50
14966;BME280;7577;45.226;5.798;2023-05-12T18:45:02;98693.47;;;22.99;50.44
14966;BME280;7577;45.226;5.798;2023-05-12T18:47:33;98698.23;;;22.98;50.67
14966;BME280;7577;45.226;5.798;2023-05-12T18:50:04;98705.05;;;23.01;50.54
14966;BME280;7577;45.226;5.798;2023-05-12T18:52:35;98703.06;;;23.01;50.49
14966;BME280;7577;45.226;5.798;2023-05-12T18:55:07;98711.05;;;23.03;50.53
14966;BME280;7577;45.226;5.798;2023-05-12T18:57:37;98712.57;;;23.00;50.71
14966;BME280;7577;45.226;5.798;2023-05-12T19:00:09;98706.45;;;23.01;50.57
14966;BME280;7577;45.226;5.798;2023-05-12T19:02:39;98708.62;;;23.01;50.41
14966;BME280;7577;45.226;5.798;2023-05-12T19:05:10;98714.91;;;22.98;50.51
14966;BME280;7577;45.226;5.798;2023-05-12T19:07:41;98725.19;;;22.98;50.98
14966;BME280;7577;45.226;5.798;2023-05-12T19:12:49;98724.16;;;23.02;50.74
14966;BME280;7577;45.226;5.798;2023-05-12T19:15:20;98733.63;;;23.01;50.81
14966;BME280;7577;45.226;5.798;2023-05-12T19:17:50;98731.10;;;23.02;50.95
14966;BME280;7577;45.226;5.798;2023-05-12T19:20:21;98733.63;;;23.01;51.43
14966;BME280;7577;45.226;5.798;2023-05-12T19:22:51;98729.94;;;23.03;51.32
14966;BME280;7577;45.226;5.798;2023-05-12T19:25:22;98736.31;;;23.04;51.59
14966;BME280;7577;45.226;5.798;2023-05-12T19:27:52;98738.05;;;23.02;51.61
14966;BME280;7577;45.226;5.798;2023-05-12T19:30:22;98746.03;;;22.98;51.68
14966;BME280;7577;45.226;5.798;2023-05-12T19:32:54;98742.93;;;22.93;51.54
14966;BME280;7577;45.226;5.798;2023-05-12T19:35:24;98744.56;;;22.88;51.61
14966;BME280;7577;45.226;5.798;2023-05-12T19:37:54;98746.30;;;22.87;51.62
14966;BME280;7577;45.226;5.798;2023-05-12T19:40:24;98752.77;;;22.85;51.64
14966;BME280;7577;45.226;5.798;2023-05-12T19:42:56;98742.48;;;22.85;51.67
14966;BME280;7577;45.226;5.798;2023-05-12T19:45:26;98745.48;;;22.86;51.61
14966;BME280;7577;45.226;5.798;2023-05-12T19:47:57;98748.59;;;22.85;51.61
14966;BME280;7577;45.226;5.798;2023-05-12T19:50:29;98759.14;;;22.85;51.63
14966;BME280;7577;45.226;5.798;2023-05-12T19:52:59;98762.36;;;22.87;51.55
14966;BME280;7577;45.226;5.798;2023-05-12T19:58:07;98769.66;;;22.86;51.59
14966;BME280;7577;45.226;5.798;2023-05-12T20:03:15;98773.37;;;22.84;51.65
14966;BME280;7577;45.226;5.798;2023-05-12T20:05:46;98778.83;;;22.80;51.65
14966;BME280;7577;45.226;5.798;2023-05-12T20:08:16;98778.57;;;22.79;51.64
14966;BME280;7577;45.226;5.798;2023-05-12T20:10:46;98781.34;;;22.79;51.62
14966;BME280;7577;45.226;5.798;2023-05-12T20:13:17;98780.33;;;22.78;51.65
14966;BME280;7577;45.226;5.798;2023-05-12T20:15:46;98786.45;;;22.77;51.68
14966;BME280;7577;45.226;5.798;2023-05-12T20:18:17;98786.80;;;22.76;51.69
14966;BME280;7577;45.226;5.798;2023-05-12T20:20:48;98791.91;;;22.74;51.73
14966;BME280;7577;45.226;5.798;2023-05-12T20:23:19;98788.30;;;22.73;51.72
14966;BME280;7577;45.226;5.798;2023-05-12T20:28:26;98789.01;;;22.76;51.76
14966;BME280;7577;45.226;5.798;2023-05-12T20:33:36;98796.06;;;22.74;51.76
14966;BME280;7577;45.226;5.798;2023-05-12T20:36:07;98802.88;;;22.70;51.80
14966;BME280;7577;45.226;5.798;2023-05-12T20:38:37;98806.81;;;22.69;51.80
14966;BME280;7577;45.226;5.798;2023-05-12T20:43:50;98804.63;;;22.69;51.83
14966;BME280;7577;45.226;5.798;2023-05-12T20:46:20;98814.81;;;22.65;51.87
14966;BME280;7577;45.226;5.798;2023-05-12T20:51:28;98816.42;;;22.66;51.90
14966;BME280;7577;45.226;5.798;2023-05-12T20:54:00;98821.27;;;22.63;51.91
14966;BME280;7577;45.226;5.798;2023-05-12T20:56:30;98827.65;;;22.63;51.91
14966;BME280;7577;45.226;5.798;2023-05-12T20:59:00;98824.64;;;22.62;51.93
14966;BME280;7577;45.226;5.798;2023-05-12T21:01:30;98825.44;;;22.63;51.90
14966;BME280;7577;45.226;5.798;2023-05-12T21:04:00;98824.64;;;22.62;51.90
14966;BME280;7577;45.226;5.798;2023-05-12T21:06:30;98824.27;;;22.64;51.87
14966;BME280;7577;45.226;5.798;2023-05-12T21:09:01;98830.77;;;22.62;51.91
14966;BME280;7577;45.226;5.798;2023-05-12T21:14:10;98822.44;;;22.62;51.91
14966;BME280;7577;45.226;5.798;2023-05-12T21:16:40;98826.72;;;22.59;51.86
14966;BME280;7577;45.226;5.798;2023-05-12T21:19:10;98828.45;;;22.58;51.86
14966;BME280;7577;45.226;5.798;2023-05-12T21:21:41;98828.78;;;22.56;51.91
14966;BME280;7577;45.226;5.798;2023-05-12T21:26:49;98820.23;;;22.55;51.89
14966;BME280;7577;45.226;5.798;2023-05-12T21:29:19;98822.64;;;22.51;51.89
14966;BME280;7577;45.226;5.798;2023-05-12T21:31:49;98822.64;;;22.51;51.83
14966;BME280;7577;45.226;5.798;2023-05-12T21:34:20;98827.86;;;22.52;51.80
14966;BME280;7577;45.226;5.798;2023-05-12T21:36:50;98827.41;;;22.50;51.84
14966;BME280;7577;45.226;5.798;2023-05-12T21:39:20;98828.67;;;22.53;51.76
14966;BME280;7577;45.226;5.798;2023-05-12T21:41:50;98826.35;;;22.55;51.65
14966;BME280;7577;45.226;5.798;2023-05-12T21:44:20;98824.97;;;22.55;51.60
14966;BME280;7577;45.226;5.798;2023-05-12T21:49:31;98828.00;;;22.56;51.62
14966;BME280;7577;45.226;5.798;2023-05-12T21:52:01;98831.11;;;22.54;51.61
14966;BME280;7577;45.226;5.798;2023-05-12T21:54:32;98830.97;;;22.51;51.65
14966;BME280;7577;45.226;5.798;2023-05-12T21:57:03;98834.45;;;22.54;51.59
14966;BME280;7577;45.226;5.798;2023-05-12T21:59:33;98828.67;;;22.53;51.59
14966;BME280;7577;45.226;5.798;2023-05-12T22:04:46;98829.73;;;22.54;51.52
14966;BME280;7577;45.226;5.798;2023-05-12T22:07:16;98829.50;;;22.53;51.49
14966;BME280;7577;45.226;5.798;2023-05-12T22:09:47;98832.84;;;22.53;51.49
14966;BME280;7577;45.226;5.798;2023-05-12T22:12:17;98835.84;;;22.54;51.47
14966;BME280;7577;45.226;5.798;2023-05-12T22:14:48;98834.00;;;22.52;51.47
14966;BME280;7577;45.226;5.798;2023-05-12T22:17:19;98839.89;;;22.50;51.49
14966;BME280;7577;45.226;5.798;2023-05-12T22:19:49;98841.06;;;22.49;51.49
14966;BME280;7577;45.226;5.798;2023-05-12T22:22:19;98846.61;;;22.49;51.51
14966;BME280;7577;45.226;5.798;2023-05-12T22:24:49;98846.61;;;22.49;51.53
14966;BME280;7577;45.226;5.798;2023-05-12T22:29:58;98849.39;;;22.49;51.57
14966;BME280;7577;45.226;5.798;2023-05-12T22:32:28;98855.84;;;22.47;51.63
14966;BME280;7577;45.226;5.798;2023-05-12T22:34:58;98855.92;;;22.45;51.66
14966;BME280;7577;45.226;5.798;2023-05-12T22:37:29;98853.48;;;22.43;51.69
14966;BME280;7577;45.226;5.798;2023-05-12T22:39:59;98855.70;;;22.44;51.73
14966;BME280;7577;45.226;5.798;2023-05-12T22:45:08;98856.75;;;22.45;51.78
14966;BME280;7577;45.226;5.798;2023-05-12T22:47:38;98856.04;;;22.42;51.82
14966;BME280;7577;45.226;5.798;2023-05-12T22:50:10;98862.52;;;22.40;51.86
14966;BME280;7577;45.226;5.798;2023-05-12T22:52:40;98864.48;;;22.40;51.91
14966;BME280;7577;45.226;5.798;2023-05-12T22:55:11;98866.69;;;22.40;51.93
14966;BME280;7577;45.226;5.798;2023-05-12T22:57:41;98862.61;;;22.38;51.95
14966;BME280;7577;45.226;5.798;2023-05-12T23:00:14;98862.86;;;22.39;51.98
14966;BME280;7577;45.226;5.798;2023-05-12T23:02:44;98860.42;;;22.37;52.01
14966;BME280;7577;45.226;5.798;2023-05-12T23:05:16;98862.38;;;22.37;52.02
14966;BME280;7577;45.226;5.798;2023-05-12T23:07:46;98866.77;;;22.38;52.03
14966;BME280;7577;45.226;5.798;2023-05-12T23:10:17;98866.77;;;22.38;52.03
14966;BME280;7577;45.226;5.798;2023-05-12T23:12:47;98868.27;;;22.35;52.06
14966;BME280;7577;45.226;5.798;2023-05-12T23:15:19;98866.88;;;22.35;52.04
14966;BME280;7577;45.226;5.798;2023-05-12T23:17:50;98871.98;;;22.33;52.03
14966;BME280;7577;45.226;5.798;2023-05-12T23:20:20;98866.99;;;22.33;51.98
14966;BME280;7577;45.226;5.798;2023-05-12T23:22:50;98868.98;;;22.32;51.96
14966;BME280;7577;45.226;5.798;2023-05-12T23:25:21;98872.55;;;22.33;51.92
14966;BME280;7577;45.226;5.798;2023-05-12T23:27:51;98874.87;;;22.31;51.93
14966;BME280;7577;45.226;5.798;2023-05-12T23:30:21;98872.42;;;22.29;51.96
14966;BME280;7577;45.226;5.798;2023-05-12T23:32:51;98872.20;;;22.28;51.94
14966;BME280;7577;45.226;5.798;2023-05-12T23:35:23;98875.20;;;22.29;51.93
14966;BME280;7577;45.226;5.798;2023-05-12T23:37:53;98876.70;;;22.27;51.92
14966;BME280;7577;45.226;5.798;2023-05-12T23:40:23;98874.38;;;22.23;52.03
14966;BME280;7577;45.226;5.798;2023-05-12T23:42:53;98876.47;;;22.26;51.95
14966;BME280;7577;45.226;5.798;2023-05-12T23:45:23;98873.44;;;22.24;51.91
14966;BME280;7577;45.226;5.798;2023-05-12T23:47:53;98874.49;;;22.26;51.88
14966;BME280;7577;45.226;5.798;2023-05-12T23:50:24;98875.98;;;22.23;51.86
14966;BME280;7577;45.226;5.798;2023-05-12T23:52:54;98878.88;;;22.21;51.91
14966;BME280;7577;45.226;5.798;2023-05-12T23:55:24;98877.03;;;22.19;51.95
14966;BME280;7577;45.226;5.798;2023-05-12T23:57:54;98867.43;;;22.17;52.00
